Time;durP1;ratioP1;P1;durP2;ratioP2;P2;SDS_P1;SDS_P2;PMS_P1;PMS_P2;Temp;Humidity;BMP_temperature;BMP_pressure;BME280_temperature;BME280_humidity;BME280_pressure;Samples;Min_cycle;Max_cycle;Signal;HPM_P1;HPM_P2
2021/09/15 00:01:49;;;;;;;8.73;7.82;;;;;;;21.97;59.59;101102.88;4977714;28;20037;-76
2021/09/15 00:04:15;;;;;;;8.52;7.72;;;;;;;22.04;59.37;101112.50;4968989;28;20034;-77
2021/09/15 00:06:40;;;;;;;8.75;7.85;;;;;;;22.03;59.32;101108.13;4993533;28;20030;-76
2021/09/15 00:09:06;;;;;;;8.00;7.22;;;;;;;21.97;59.13;101100.25;4973110;28;20081;-76
2021/09/15 00:11:31;;;;;;;8.95;8.15;;;;;;;21.95;59.36;101095.00;4980823;28;20392;-76
2021/09/15 00:13:56;;;;;;;8.45;7.65;;;;;;;22.03;59.30;101105.47;4981949;28;20053;-76
2021/09/15 00:16:22;;;;;;;8.80;8.00;;;;;;;22.02;59.39;101109.88;4960396;28;20030;-76
2021/09/15 00:18:47;;;;;;;8.65;7.57;;;;;;;22.01;59.32;101107.25;5005632;28;20057;-76
2021/09/15 00:21:13;;;;;;;8.75;7.85;;;;;;;21.99;59.43;101099.38;4991309;28;20034;-77
2021/09/15 00:23:38;;;;;;;7.85;7.10;;;;;;;21.95;59.37;101088.88;5000498;28;20437;-76
2021/09/15 00:26:04;;;;;;;9.40;8.50;;;;;;;22.01;59.36;101100.22;4991478;28;20072;-76
2021/09/15 00:28:29;;;;;;;8.52;7.70;;;;;;;21.97;59.23;101092.34;4975416;28;20053;-77
2021/09/15 00:30:54;;;;;;;8.60;7.72;;;;;;;21.88;59.16;101066.19;4975321;28;20034;-76
2021/09/15 00:33:20;;;;;;;8.40;7.47;;;;;;;21.98;59.28;101087.06;4995939;28;20023;-77
2021/09/15 00:35:45;;;;;;;8.40;7.63;;;;;;;21.94;59.50;101081.91;4956172;28;20112;-76
2021/09/15 00:38:10;;;;;;;7.88;7.15;;;;;;;21.85;59.21;101068.84;4979347;28;20026;-77
2021/09/15 00:40:36;;;;;;;8.57;7.30;;;;;;;21.96;59.45;101086.22;4955508;28;20034;-77
2021/09/15 00:43:01;;;;;;;7.75;6.95;;;;;;;21.96;59.31;101086.22;4973171;28;20026;-76
2021/09/15 00:45:27;;;;;;;8.70;7.90;;;;;;;21.99;59.43;101093.25;4970760;28;20477;-76
2021/09/15 00:47:52;;;;;;;7.95;7.20;;;;;;;21.94;59.30;101085.38;4966871;28;20062;-77
2021/09/15 00:50:18;;;;;;;8.40;7.55;;;;;;;22.02;59.41;101101.97;5005132;28;20037;-77
2021/09/15 00:52:44;;;;;;;7.97;7.25;;;;;;;22.00;59.20;101102.88;4979173;28;20033;-76
2021/09/15 00:55:10;;;;;;;8.73;7.90;;;;;;;22.03;59.26;101108.13;4978602;28;20026;-77
2021/09/15 00:57:36;;;;;;;8.27;7.47;;;;;;;22.00;59.52;101094.97;4978858;28;20041;-77
2021/09/15 01:00:01;;;;;;;7.15;6.45;;;;;;;21.99;59.41;101101.13;5005065;28;20034;-77
2021/09/15 01:02:28;;;;;;;8.70;7.90;;;;;;;21.98;59.50;101091.47;4983458;28;20048;-77
2021/09/15 01:04:53;;;;;;;8.55;7.57;;;;;;;21.88;58.99;101077.59;5017264;28;20037;-77
2021/09/15 01:07:18;;;;;;;7.70;6.90;;;;;;;21.98;59.21;101094.97;4985601;28;20488;-76
2021/09/15 01:09:44;;;;;;;7.88;7.18;;;;;;;21.98;59.35;101089.69;4971645;28;20026;-76
2021/09/15 01:12:12;;;;;;;8.10;7.30;;;;;;;22.02;59.40;101086.16;5007336;28;20026;-76
2021/09/15 01:14:40;;;;;;;7.93;7.15;;;;;;;22.02;59.41;101087.94;5016558;28;20427;-76
2021/09/15 01:17:07;;;;;;;8.32;7.50;;;;;;;22.02;59.34;101086.16;4990563;28;20026;-76
2021/09/15 01:19:32;;;;;;;8.10;7.32;;;;;;;21.99;59.31;101083.56;4990547;28;20459;-76
2021/09/15 01:21:58;;;;;;;8.10;7.32;;;;;;;21.73;59.48;101047.09;4988274;28;20053;-77
2021/09/15 01:24:25;;;;;;;8.57;7.75;;;;;;;21.92;59.38;101076.66;4991421;28;20026;-77
2021/09/15 01:26:52;;;;;;;7.57;6.80;;;;;;;21.95;59.40;101081.84;4997354;28;20078;-77
2021/09/15 01:29:25;;;;;;;7.70;6.95;;;;;;;22.02;59.32;101095.84;4981711;28;20026;-76
2021/09/15 01:31:59;;;;;;;7.40;6.70;;;;;;;22.01;59.44;101092.34;4998189;28;20105;-77
2021/09/15 01:34:25;;;;;;;7.97;7.18;;;;;;;21.97;59.55;101077.44;4989686;28;20109;-77
2021/09/15 01:36:51;;;;;;;9.05;8.15;;;;;;;21.95;59.32;101080.97;5010447;28;20046;-76
2021/09/15 01:39:16;;;;;;;8.35;7.50;;;;;;;21.96;59.39;101080.09;4966673;28;20026;-77
2021/09/15 01:41:41;;;;;;;7.78;7.03;;;;;;;21.91;59.56;101068.78;4988786;28;20429;-77
2021/09/15 01:44:07;;;;;;;7.80;7.10;;;;;;;21.97;59.30;101082.69;5016485;28;20511;-77
2021/09/15 01:46:32;;;;;;;7.88;7.10;;;;;;;21.95;59.52;101076.56;4982469;28;20038;-76
2021/09/15 01:48:58;;;;;;;8.25;7.45;;;;;;;21.95;59.56;101071.31;4988017;28;20116;-76
2021/09/15 01:51:23;;;;;;;7.80;7.10;;;;;;;21.95;59.46;101079.22;5009249;28;20357;-77
2021/09/15 01:53:48;;;;;;;8.05;7.28;;;;;;;21.92;59.38;101066.13;4980577;28;20030;-77
2021/09/15 01:56:15;;;;;;;8.27;7.47;;;;;;;22.00;59.22;101074.78;4977976;28;20388;-76
2021/09/15 01:58:40;;;;;;;8.07;7.30;;;;;;;21.95;59.32;101063.41;5013677;28;20038;-77
2021/09/15 02:01:06;;;;;;;7.38;6.68;;;;;;;21.98;59.38;101065.13;4986113;28;20037;-77
2021/09/15 02:03:31;;;;;;;7.63;6.93;;;;;;;22.00;59.28;101063.38;5005886;28;20480;-76
2021/09/15 02:05:56;;;;;;;7.63;6.85;;;;;;;21.99;59.37;101059.00;4998722;28;20120;-76
2021/09/15 02:08:22;;;;;;;8.10;7.30;;;;;;;21.84;59.39;101027.63;4986048;28;20503;-76
2021/09/15 02:10:47;;;;;;;8.38;7.63;;;;;;;21.99;59.28;101059.88;4976847;28;20030;-77
2021/09/15 02:13:12;;;;;;;7.68;6.95;;;;;;;21.95;59.31;101050.25;4970894;28;20136;-77
2021/09/15 02:15:38;;;;;;;8.60;7.80;;;;;;;21.97;59.39;101059.00;4995286;28;20120;-77
2021/09/15 02:18:03;;;;;;;8.15;7.15;;;;;;;21.90;59.35;101040.69;4977003;28;20042;-77
2021/09/15 02:20:29;;;;;;;7.88;7.07;;;;;;;21.94;59.27;101050.31;5001930;28;20031;-77
2021/09/15 02:22:54;;;;;;;7.82;7.07;;;;;;;21.97;59.25;101055.50;4978562;28;20496;-76
2021/09/15 02:25:19;;;;;;;7.38;6.70;;;;;;;21.95;59.13;101052.00;4976573;28;20050;-78
2021/09/15 02:27:45;;;;;;;7.05;6.35;;;;;;;22.00;59.02;101066.03;4969428;28;20120;-76
2021/09/15 02:30:10;;;;;;;7.60;6.90;;;;;;;21.99;59.29;101059.00;4995969;28;20488;-77
2021/09/15 02:32:36;;;;;;;8.45;7.65;;;;;;;21.96;59.20;101066.91;4972209;28;20034;-76
2021/09/15 02:35:01;;;;;;;7.72;7.00;;;;;;;21.92;59.42;101055.59;4974587;28;20032;-76
2021/09/15 02:37:27;;;;;;;7.30;6.63;;;;;;;21.81;59.27;101043.47;4981877;28;20049;-76
2021/09/15 02:39:52;;;;;;;7.35;6.65;;;;;;;21.90;59.37;101054.72;4962836;28;20030;-76
2021/09/15 02:42:18;;;;;;;7.72;7.03;;;;;;;21.96;59.21;101066.91;4994809;28;20487;-76
2021/09/15 02:44:43;;;;;;;7.60;6.90;;;;;;;21.94;59.31;101063.47;4994739;28;20041;-77
2021/09/15 02:47:08;;;;;;;8.50;7.63;;;;;;;21.96;59.31;101067.78;4985675;28;20061;-76
2021/09/15 02:49:34;;;;;;;8.57;7.78;;;;;;;21.89;59.18;101057.38;4997987;28;20039;-77
2021/09/15 02:52:00;;;;;;;8.25;7.45;;;;;;;21.93;59.06;101059.97;4972598;28;20126;-76
2021/09/15 02:54:25;;;;;;;7.38;6.63;;;;;;;21.99;59.23;101072.19;4988666;28;20479;-76
2021/09/15 02:56:51;;;;;;;7.13;6.43;;;;;;;21.93;59.41;101056.47;5008117;28;20480;-76
2021/09/15 02:59:16;;;;;;;7.63;6.85;;;;;;;21.91;59.31;101055.59;4978113;28;20033;-77
2021/09/15 03:01:41;;;;;;;8.45;7.60;;;;;;;21.98;59.30;101058.09;4985872;28;20113;-76
2021/09/15 03:04:07;;;;;;;7.55;6.82;;;;;;;21.96;59.47;101059.00;5021188;28;20034;-76
2021/09/15 03:06:32;;;;;;;8.15;7.35;;;;;;;21.98;59.29;101051.97;4986466;28;20030;-77
2021/09/15 03:08:57;;;;;;;7.38;6.68;;;;;;;21.91;59.15;101042.44;4996859;28;20044;-76
2021/09/15 03:11:23;;;;;;;7.90;6.45;;;;;;;21.98;59.03;101051.97;4970358;28;20827;-76
2021/09/15 03:13:48;;;;;;;6.72;6.13;;;;;;;21.94;59.31;101051.13;5012427;28;20034;-76
2021/09/15 03:16:14;;;;;;;7.53;6.82;;;;;;;21.97;59.17;101056.38;4965933;28;20114;-76
2021/09/15 03:18:40;;;;;;;7.05;6.35;;;;;;;21.95;59.17;101052.00;5015971;28;20447;-76
2021/09/15 03:21:05;;;;;;;7.90;7.07;;;;;;;21.90;59.31;101036.31;4980323;28;20052;-76
2021/09/15 03:23:31;;;;;;;8.43;7.63;;;;;;;21.98;59.23;101050.19;5015063;28;20080;-76
2021/09/15 03:25:56;;;;;;;7.10;6.40;;;;;;;21.97;59.06;101045.81;4983441;28;20081;-77
2021/09/15 03:28:22;;;;;;;7.53;6.80;;;;;;;21.96;59.11;101038.81;4973334;28;20037;-77
2021/09/15 03:30:47;;;;;;;7.57;6.85;;;;;;;21.97;59.19;101040.56;4981644;28;20507;-76
2021/09/15 03:33:12;;;;;;;8.00;7.20;;;;;;;21.94;59.28;101032.72;4973284;28;20030;-76
2021/09/15 03:35:38;;;;;;;7.80;6.90;;;;;;;21.87;59.16;101017.91;4983916;28;20030;-76
2021/09/15 03:38:03;;;;;;;6.72;6.05;;;;;;;21.94;59.09;101029.22;4975808;28;20044;-76
2021/09/15 03:40:28;;;;;;;7.90;7.10;;;;;;;21.94;59.24;101027.44;4999546;28;20026;-76
2021/09/15 03:42:54;;;;;;;9.50;6.15;;;;;;;21.95;59.24;101028.31;4953075;28;20129;-76
2021/09/15 03:45:19;;;;;;;7.70;7.00;;;;;;;21.96;59.20;101032.69;4998842;28;20038;-77
2021/09/15 03:47:45;;;;;;;7.13;6.43;;;;;;;21.95;59.50;101026.53;5000133;28;20045;-76
2021/09/15 03:50:10;;;;;;;6.65;6.05;;;;;;;21.92;59.10;101012.59;4981945;28;20030;-75
2021/09/15 03:52:36;;;;;;;7.68;6.97;;;;;;;21.92;59.26;101010.81;4966027;28;20026;-76
2021/09/15 03:55:01;;;;;;;7.57;6.88;;;;;;;21.92;59.31;101010.81;5011610;28;20021;-76
2021/09/15 03:57:26;;;;;;;7.25;6.57;;;;;;;21.96;59.26;101011.63;4997135;28;20044;-76
2021/09/15 03:59:52;;;;;;;7.15;6.45;;;;;;;21.86;59.25;101002.13;4965864;28;20031;-76
2021/09/15 04:02:17;;;;;;;8.40;7.60;;;;;;;21.95;59.11;101010.75;4966708;28;20030;-76
2021/09/15 04:04:43;;;;;;;7.07;6.38;;;;;;;21.93;59.09;101015.19;4962868;28;20022;-76
2021/09/15 04:07:08;;;;;;;7.03;6.32;;;;;;;21.94;59.28;101021.34;4964175;28;20032;-76
2021/09/15 04:09:33;;;;;;;7.18;6.47;;;;;;;21.88;59.10;101011.75;4966118;28;20115;-76
2021/09/15 04:11:59;;;;;;;7.43;6.72;;;;;;;21.90;59.27;101012.59;4984687;28;20026;-75
2021/09/15 04:14:25;;;;;;;6.75;6.13;;;;;;;21.89;59.28;101024.03;4977967;28;20038;-76
2021/09/15 04:16:51;;;;;;;7.32;6.63;;;;;;;21.94;59.01;101037.13;4995305;28;20026;-76
2021/09/15 04:19:16;;;;;;;8.43;7.63;;;;;;;21.96;59.19;101033.56;4986662;28;20095;-76
2021/09/15 04:21:42;;;;;;;6.57;5.97;;;;;;;21.95;59.33;101034.44;4963659;28;20026;-76
2021/09/15 04:32:10;;;;;;;7.22;6.53;;;;;;;21.94;59.04;101037.97;4990803;28;20072;-76
2021/09/15 04:34:35;;;;;;;7.13;6.38;;;;;;;21.96;59.33;101037.94;4983495;28;20049;-76
2021/09/15 04:37:01;;;;;;;7.40;6.68;;;;;;;21.95;59.19;101038.84;4993193;28;20026;-76
2021/09/15 04:39:26;;;;;;;6.85;6.25;;;;;;;21.96;58.87;101045.84;4984870;28;20044;-76
2021/09/15 04:41:51;;;;;;;7.15;6.47;;;;;;;21.89;59.45;101029.28;4964009;28;20125;-76
2021/09/15 04:44:17;;;;;;;8.35;6.30;;;;;;;21.97;59.19;101034.44;5009403;28;20037;-76
2021/09/15 04:46:42;;;;;;;7.55;6.85;;;;;;;21.89;59.11;101017.91;5004340;28;20046;-76
2021/09/15 04:49:07;;;;;;;7.63;6.93;;;;;;;21.96;59.25;101024.78;4981513;28;20034;-76
2021/09/15 04:51:33;;;;;;;7.50;6.80;;;;;;;21.93;59.22;101014.31;4973151;28;20033;-76
2021/09/15 04:53:58;;;;;;;7.88;7.07;;;;;;;21.88;59.07;101005.63;4959320;28;20033;-76
2021/09/15 04:56:23;;;;;;;7.53;6.82;;;;;;;21.91;59.26;101010.84;4981343;28;20033;-76
2021/09/15 04:58:49;;;;;;;6.45;5.70;;;;;;;21.90;59.24;101011.75;4966040;28;20070;-76
2021/09/15 05:01:14;;;;;;;6.90;6.20;;;;;;;21.95;58.98;101029.19;4983404;28;20034;-76
2021/09/15 05:03:39;;;;;;;6.63;6.03;;;;;;;21.95;59.27;101030.94;4980304;28;20130;-76
2021/09/15 05:06:05;;;;;;;7.75;6.82;;;;;;;21.91;59.26;101024.00;4956146;28;20031;-75
2021/09/15 05:08:31;;;;;;;7.47;6.65;;;;;;;21.92;59.16;101021.34;4982267;28;20034;-76
2021/09/15 05:10:57;;;;;;;7.13;6.45;;;;;;;21.96;59.21;101024.78;5001523;28;20445;-75
2021/09/15 05:13:22;;;;;;;7.28;6.57;;;;;;;21.90;59.21;101015.25;4964872;28;20113;-76
2021/09/15 05:15:47;;;;;;;6.95;6.20;;;;;;;21.91;59.24;101010.84;5002796;28;20030;-76
2021/09/15 05:18:13;;;;;;;7.53;6.78;;;;;;;21.95;59.20;101015.16;4983477;28;20029;-76
2021/09/15 05:20:38;;;;;;;7.60;6.90;;;;;;;21.91;59.23;101016.97;4978412;28;20481;-76
2021/09/15 05:23:03;;;;;;;7.68;6.93;;;;;;;21.94;59.12;101027.44;4997402;28;20499;-76
2021/09/15 05:25:29;;;;;;;8.02;7.22;;;;;;;21.94;59.13;101024.81;4970278;28;20584;-75
2021/09/15 05:27:54;;;;;;;6.38;5.78;;;;;;;21.92;59.23;101023.13;4979348;28;20084;-76
2021/09/15 05:30:20;;;;;;;6.78;6.07;;;;;;;21.89;58.93;101017.91;4975782;28;20391;-76
2021/09/15 05:32:46;;;;;;;6.97;6.28;;;;;;;21.95;58.93;101021.28;4988528;28;20044;-76
2021/09/15 05:35:12;;;;;;;7.07;6.38;;;;;;;21.94;59.04;101019.53;5015393;28;20445;-75
2021/09/15 05:37:38;;;;;;;5.97;5.38;;;;;;;22.00;59.01;101034.41;5036462;28;20025;-77
2021/09/15 05:40:05;;;;;;;17.75;15.85;;;;;;;21.75;60.45;101029.50;5020330;28;20026;-75
2021/09/15 05:42:31;;;;;;;22.67;18.58;;;;;;;21.74;60.82;101040.06;4981725;28;20045;-77
2021/09/15 05:45:01;;;;;;;24.20;18.98;;;;;;;21.66;61.21;101037.56;5009850;28;20030;-75
2021/09/15 05:47:27;;;;;;;27.17;20.90;;;;;;;21.55;61.57;101023.66;4978703;28;20392;-76
2021/09/15 05:49:52;;;;;;;25.88;20.45;;;;;;;21.67;61.49;101036.66;4975252;28;20034;-75
2021/09/15 05:52:17;;;;;;;29.20;22.23;;;;;;;21.53;61.70;101016.72;4981558;28;20038;-76
2021/09/15 05:54:43;;;;;;;26.80;23.50;;;;;;;21.64;61.94;101039.34;4981590;28;20124;-76
2021/09/15 05:57:08;;;;;;;26.13;22.33;;;;;;;21.44;61.99;101015.06;4975545;28;20034;-76
2021/09/15 05:59:33;;;;;;;31.42;24.98;;;;;;;21.56;62.22;101041.19;4979188;28;20543;-76
2021/09/15 06:01:59;;;;;;;27.52;23.63;;;;;;;21.56;62.16;101043.81;4989389;28;20026;-75
2021/09/15 06:04:24;;;;;;;29.08;23.13;;;;;;;21.57;62.29;101044.69;4998861;28;20076;-75
2021/09/15 06:06:49;;;;;;;31.95;24.33;;;;;;;21.55;61.99;101039.44;4997474;28;20030;-79
2021/09/15 06:09:15;;;;;;;28.33;24.38;;;;;;;21.52;62.49;101042.16;4980674;28;20415;-78
2021/09/15 06:11:40;;;;;;;29.80;25.13;;;;;;;21.50;62.55;101048.31;4980143;28;20034;-79
2021/09/15 06:14:06;;;;;;;31.75;23.35;;;;;;;21.50;62.58;101051.81;4996524;28;20109;-78
2021/09/15 06:16:31;;;;;;;31.02;23.48;;;;;;;21.49;62.76;101051.84;5000649;28;20080;-77
2021/09/15 06:18:56;;;;;;;28.33;25.05;;;;;;;21.47;62.66;101043.97;5002152;28;20033;-77
2021/09/15 06:21:22;;;;;;;28.40;25.27;;;;;;;21.52;62.47;101055.31;5019968;28;20076;-77
2021/09/15 06:23:47;;;;;;;33.88;24.90;;;;;;;21.46;62.70;101049.25;5001309;28;20104;-78
2021/09/15 06:26:13;;;;;;;31.45;23.65;;;;;;;21.43;62.85;101052.78;5009209;28;20050;-76
2021/09/15 06:28:39;;;;;;;26.17;23.38;;;;;;;21.47;62.99;101059.75;4985569;28;20566;-77
2021/09/15 06:31:05;;;;;;;26.60;23.42;;;;;;;21.54;62.74;101063.19;4983549;28;20026;-78
2021/09/15 06:33:31;;;;;;;24.80;22.17;;;;;;;21.48;62.78;101066.75;4983765;28;20121;-77
2021/09/15 06:35:57;;;;;;;23.83;21.20;;;;;;;21.47;62.69;101065.00;4980640;28;20026;-77
2021/09/15 06:38:22;;;;;;;27.95;21.83;;;;;;;21.53;63.04;101064.06;4978909;28;20511;-77
2021/09/15 06:40:48;;;;;;;22.88;19.65;;;;;;;21.58;62.74;101067.50;4978682;28;20135;-78
2021/09/15 06:43:13;;;;;;;26.42;20.60;;;;;;;21.46;62.73;101047.47;4978346;28;20026;-77
2021/09/15 06:45:39;;;;;;;20.75;18.52;;;;;;;21.61;62.72;101067.47;4996029;28;20035;-77
2021/09/15 06:48:05;;;;;;;21.30;18.67;;;;;;;21.58;62.59;101070.13;5003706;28;20085;-78
2021/09/15 06:50:33;;;;;;;23.55;18.95;;;;;;;21.56;62.67;101061.38;4987073;28;20030;-76
2021/09/15 06:52:58;;;;;;;19.73;17.38;;;;;;;21.59;62.80;101062.22;4979557;28;20472;-79
2021/09/15 06:55:24;;;;;;;20.73;18.50;;;;;;;21.63;62.84;101073.56;4994627;28;20106;-76
2021/09/15 06:57:50;;;;;;;20.15;17.08;;;;;;;21.63;62.67;101058.66;4995631;28;20341;-78
2021/09/15 07:00:19;;;;;;;16.48;14.57;;;;;;;21.61;62.70;101065.69;4977809;28;20050;-78
2021/09/15 07:02:46;;;;;;;17.52;15.68;;;;;;;21.66;62.79;101070.91;4961886;28;20508;-79
2021/09/15 07:05:11;;;;;;;15.95;13.73;;;;;;;21.67;62.79;101076.16;4995636;28;20050;-80
2021/09/15 07:07:37;;;;;;;17.10;15.18;;;;;;;21.56;62.79;101078.03;4995363;28;20481;-77
2021/09/15 07:10:07;;;;;;;15.57;13.90;;;;;;;21.56;62.98;101079.78;4948210;28;20177;-77
2021/09/15 07:12:39;;;;;;;16.65;14.68;;;;;;;21.50;62.80;101085.16;4929092;28;20089;-76
2021/09/15 07:15:14;;;;;;;15.68;14.07;;;;;;;21.39;63.06;101069.53;4980232;28;20030;-74
2021/09/15 07:17:44;;;;;;;15.90;14.18;;;;;;;21.31;62.78;101055.59;4930718;28;20039;-74
2021/09/15 07:20:15;;;;;;;14.38;12.88;;;;;;;21.30;63.03;101053.84;4972827;28;20034;-74
2021/09/15 07:23:28;;;;;;;14.57;13.00;;;;;;;21.35;62.52;101070.44;4997807;28;20112;-77
2021/09/15 07:25:41;;;;;;;15.85;11.52;;;;;;;21.26;62.10;101060.91;4999330;28;20139;-75
2021/09/15 07:28:27;;;;;;;13.13;10.85;;;;;;;21.10;61.96;101033.03;4984981;28;20038;-78
2021/09/15 07:30:52;;;;;;;13.77;10.55;;;;;;;21.09;62.12;101040.94;4974599;28;20034;-76
2021/09/15 07:33:23;;;;;;;10.13;9.07;;;;;;;21.28;61.88;101061.78;4986444;28;20113;-75
2021/09/15 07:35:48;;;;;;;12.57;9.18;;;;;;;21.34;62.00;101084.50;4989721;28;20727;-76
2021/09/15 07:38:14;;;;;;;9.93;8.07;;;;;;;21.28;61.76;101074.06;4980171;28;20043;-76
2021/09/15 07:40:41;;;;;;;12.18;8.30;;;;;;;21.33;61.45;101080.13;5012008;28;20485;-76
2021/09/15 07:43:13;;;;;;;8.30;7.47;;;;;;;21.43;61.43;101099.28;4998612;28;20046;-76
2021/09/15 07:45:39;;;;;;;10.02;7.57;;;;;;;21.28;61.19;101067.03;4987164;28;20553;-76
2021/09/15 07:48:04;;;;;;;8.23;6.68;;;;;;;21.31;60.86;101084.50;5005300;28;20069;-75
2021/09/15 07:50:30;;;;;;;7.75;6.55;;;;;;;21.33;60.98;101090.63;4974885;28;20034;-75
2021/09/15 07:52:55;;;;;;;8.15;5.75;;;;;;;21.43;60.92;101099.28;4975948;28;20452;-75
2021/09/15 07:55:26;;;;;;;6.82;5.13;;;;;;;21.53;60.92;101096.53;5000359;28;20033;-76
2021/09/15 07:58:07;;;;;;;6.72;6.03;;;;;;;21.53;60.63;101091.25;4982815;28;20034;-75
2021/09/15 08:00:32;;;;;;;6.85;5.65;;;;;;;21.65;60.67;101096.34;5015451;28;20026;-76
2021/09/15 08:02:57;;;;;;;6.00;5.43;;;;;;;21.62;60.61;101085.88;5014364;28;20033;-76
2021/09/15 08:05:23;;;;;;;6.05;4.57;;;;;;;21.64;60.54;101078.81;4980070;28;20040;-75
2021/09/15 08:07:51;;;;;;;7.40;4.75;;;;;;;21.64;60.20;101081.44;4966713;28;20076;-75
2021/09/15 08:10:22;;;;;;;5.22;4.63;;;;;;;21.65;60.39;101069.16;4998592;28;20022;-75
2021/09/15 08:12:50;;;;;;;10.68;5.55;;;;;;;21.69;60.48;101082.22;5000175;28;20116;-75
2021/09/15 08:15:21;;;;;;;6.60;6.00;;;;;;;21.58;60.41;101063.09;4983741;28;20022;-78
2021/09/15 08:17:52;;;;;;;9.38;5.70;;;;;;;21.69;60.03;101073.47;4982547;28;20069;-75
2021/09/15 08:20:17;;;;;;;7.93;5.63;;;;;;;21.52;60.00;101034.25;4999366;28;20026;-75
2021/09/15 08:22:42;;;;;;;7.25;6.20;;;;;;;21.67;60.17;101056.84;4994502;28;20041;-75
2021/09/15 08:25:08;;;;;;;7.55;6.00;;;;;;;21.67;60.26;101059.50;4983204;28;20049;-75
2021/09/15 08:27:33;;;;;;;7.93;4.90;;;;;;;21.83;60.19;101086.44;4962003;28;20067;-75
2021/09/15 08:30:02;;;;;;;6.38;5.50;;;;;;;21.80;60.21;101073.34;4945907;28;20384;-75
2021/09/15 08:32:27;;;;;;;7.53;5.22;;;;;;;21.80;60.16;101073.34;4995251;28;20085;-75
2021/09/15 08:34:52;;;;;;;7.10;5.03;;;;;;;21.80;60.10;101068.94;4961989;28;20436;-74
2021/09/15 08:37:21;;;;;;;6.65;5.47;;;;;;;21.58;59.79;101033.28;4995218;28;20427;-74
2021/09/15 08:39:46;;;;;;;6.18;5.57;;;;;;;21.80;59.73;101066.31;4981481;28;20037;-74
2021/09/15 08:42:12;;;;;;;6.22;5.63;;;;;;;21.79;59.77;101061.06;4997721;28;20388;-74
2021/09/15 08:44:37;;;;;;;5.72;5.13;;;;;;;21.84;59.64;101067.97;4992469;28;20368;-74
2021/09/15 08:47:06;;;;;;;5.20;4.70;;;;;;;21.86;59.86;101073.22;4997604;28;20045;-75
2021/09/15 08:49:33;;;;;;;5.25;4.75;;;;;;;21.88;59.88;101077.59;4997173;28;20037;-74
2021/09/15 08:51:59;;;;;;;6.05;4.70;;;;;;;21.86;59.99;101068.84;4998668;28;20061;-74
2021/09/15 08:54:27;;;;;;;6.97;5.88;;;;;;;21.87;59.81;101082.88;5000420;28;20464;-74
2021/09/15 08:56:53;;;;;;;7.28;4.68;;;;;;;21.83;59.73;101071.50;5018908;28;20053;-74
2021/09/15 08:59:18;;;;;;;7.10;4.93;;;;;;;21.91;59.59;101088.06;4985434;28;20068;-74
2021/09/15 09:01:46;;;;;;;4.35;3.92;;;;;;;21.88;59.58;101076.72;4985447;28;20037;-74
2021/09/15 09:04:18;;;;;;;9.75;6.05;;;;;;;21.85;59.57;101079.38;4982768;28;20168;-75
2021/09/15 09:06:47;;;;;;;7.72;5.43;;;;;;;21.88;59.23;101088.09;4985187;28;20109;-74
2021/09/15 09:09:12;;;;;;;5.65;4.82;;;;;;;21.84;59.46;101069.75;5021545;28;20072;-74
2021/09/15 09:11:38;;;;;;;6.80;5.97;;;;;;;21.92;59.17;101088.94;4971347;28;20546;-74
2021/09/15 09:14:06;;;;;;;5.95;5.18;;;;;;;21.91;59.49;101082.81;4968167;28;20065;-75
2021/09/15 09:16:48;;;;;;;6.72;5.25;;;;;;;21.90;59.40;101082.81;4998264;28;20026;-74
2021/09/15 09:19:18;;;;;;;8.13;5.38;;;;;;;21.90;59.41;101082.81;5019517;28;20104;-74
2021/09/15 09:21:50;;;;;;;6.65;5.22;;;;;;;21.87;59.49;101083.75;5006203;28;20428;-74
2021/09/15 09:24:24;;;;;;;6.25;4.90;;;;;;;21.94;59.20;101097.69;5025172;28;20052;-74
2021/09/15 09:27:03;;;;;;;5.40;4.82;;;;;;;21.89;59.47;101091.63;5023067;28;20050;-75
2021/09/15 09:29:34;;;;;;;5.35;4.85;;;;;;;21.94;59.19;101092.44;5002015;28;20117;-74
2021/09/15 09:32:07;;;;;;;6.88;4.30;;;;;;;21.95;59.34;101105.53;5004083;28;20044;-74
2021/09/15 09:34:41;;;;;;;5.10;4.63;;;;;;;21.90;59.25;101094.22;5006008;28;20036;-73
2021/09/15 09:37:16;;;;;;;7.45;4.05;;;;;;;21.91;59.30;101095.97;5023614;28;20030;-74
2021/09/15 09:39:48;;;;;;;5.13;4.63;;;;;;;21.98;59.19;101109.91;5003688;28;20392;-74
2021/09/15 09:42:22;;;;;;;5.55;4.95;;;;;;;21.98;59.10;101110.78;5000380;28;20463;-74
2021/09/15 09:45:09;;;;;;;6.45;4.78;;;;;;;21.92;59.09;101102.97;5000380;28;20033;-74
2021/09/15 09:47:38;;;;;;;6.00;5.13;;;;;;;21.98;59.30;101108.13;5018540;28;20420;-75
2021/09/15 09:50:18;;;;;;;4.63;4.22;;;;;;;21.94;59.15;101109.06;5000456;28;20421;-77
2021/09/15 09:52:57;;;;;;;5.60;4.55;;;;;;;21.96;58.74;101111.69;5019914;28;20101;-75
2021/09/15 09:55:23;;;;;;;5.35;3.80;;;;;;;21.95;58.66;101099.41;5000483;28;20018;-76
2021/09/15 09:57:52;;;;;;;4.95;4.30;;;;;;;21.90;58.67;101094.22;4998921;28;20465;-76
2021/09/15 10:00:19;;;;;;;4.72;4.10;;;;;;;21.96;58.72;101102.03;5016483;28;20026;-74
2021/09/15 10:02:46;;;;;;;5.78;4.45;;;;;;;21.98;58.71;101102.00;4982095;28;20361;-76
2021/09/15 10:05:14;;;;;;;5.15;4.65;;;;;;;21.99;58.72;101111.69;4962520;28;20092;-75
2021/09/15 10:07:41;;;;;;;4.72;4.15;;;;;;;21.86;58.66;101089.91;5007394;28;20060;-76
2021/09/15 10:10:10;;;;;;;5.22;4.53;;;;;;;21.99;58.91;101116.94;4981176;28;20026;-75
2021/09/15 10:12:36;;;;;;;5.35;4.78;;;;;;;22.03;58.59;101126.53;4984064;28;20544;-75
2021/09/15 10:15:01;;;;;;;5.50;3.50;;;;;;;22.02;58.75;101116.91;5004322;28;20121;-75
2021/09/15 10:17:30;;;;;;;4.97;4.28;;;;;;;21.98;58.88;101116.03;4982447;28;20473;-75
2021/09/15 10:19:59;;;;;;;4.72;4.20;;;;;;;22.04;58.95;101125.66;4995493;28;20034;-74
2021/09/15 10:22:32;;;;;;;4.68;4.18;;;;;;;22.03;58.83;101126.53;5012324;28;20052;-75
2021/09/15 10:24:59;;;;;;;4.63;3.50;;;;;;;22.04;58.95;101136.19;4996470;28;20034;-75
2021/09/15 10:27:29;;;;;;;8.93;4.20;;;;;;;22.01;58.79;101125.69;5007416;28;20116;-74
2021/09/15 10:30:09;;;;;;;4.90;3.78;;;;;;;21.98;58.89;101123.94;4997649;28;20064;-74
2021/09/15 10:32:37;;;;;;;6.32;3.25;;;;;;;22.05;58.77;101132.66;5010550;28;20026;-75
2021/09/15 10:35:05;;;;;;;5.32;3.88;;;;;;;22.01;58.38;101134.47;4996467;28;20023;-74
2021/09/15 10:37:30;;;;;;;5.32;3.70;;;;;;;22.09;58.61;101147.50;4997706;28;20034;-74
2021/09/15 10:40:02;;;;;;;4.35;3.63;;;;;;;22.06;58.80;101137.03;4985097;28;20037;-74
2021/09/15 10:42:46;;;;;;;5.20;3.47;;;;;;;22.12;58.80;101146.59;5015362;28;20029;-74
2021/09/15 10:45:26;;;;;;;4.43;3.17;;;;;;;22.05;58.80;101127.41;4997890;28;20444;-74
2021/09/15 10:47:53;;;;;;;3.70;2.97;;;;;;;22.16;58.59;101141.28;4998034;28;20054;-74
2021/09/15 10:50:27;;;;;;;4.60;3.45;;;;;;;22.16;58.41;101136.00;4997602;28;20037;-74
2021/09/15 10:53:15;;;;;;;3.78;3.17;;;;;;;22.21;58.43;101142.03;5015117;28;20089;-74
2021/09/15 10:55:45;;;;;;;5.10;3.25;;;;;;;22.21;58.48;101131.50;4966255;28;20034;-74
2021/09/15 10:58:19;;;;;;;4.57;3.88;;;;;;;22.21;58.53;101141.19;4977924;28;20033;-74
2021/09/15 11:00:55;;;;;;;3.30;2.90;;;;;;;22.21;58.49;101135.91;4977933;28;20026;-75
2021/09/15 11:03:28;;;;;;;5.47;2.95;;;;;;;22.19;58.50;101135.09;4980442;28;20141;-75
2021/09/15 11:05:54;;;;;;;3.90;3.40;;;;;;;22.18;58.48;101128.94;4977930;28;20026;-74
2021/09/15 11:08:45;;;;;;;5.45;3.50;;;;;;;22.15;58.77;101130.75;4978010;28;20090;-75
2021/09/15 11:11:34;;;;;;;6.55;3.42;;;;;;;22.17;58.71;101135.09;4995603;28;20022;-75
2021/09/15 11:14:07;;;;;;;6.32;3.53;;;;;;;22.18;58.63;101144.75;4987741;28;20034;-77
2021/09/15 11:16:34;;;;;;;3.97;2.88;;;;;;;22.17;58.70;101150.91;4977735;28;20026;-76
2021/09/15 11:19:15;;;;;;;4.95;3.70;;;;;;;22.15;58.57;101143.91;4977744;28;20041;-77
2021/09/15 11:21:59;;;;;;;4.95;3.47;;;;;;;22.17;58.56;101142.13;4977589;28;20519;-77
2021/09/15 11:24:29;;;;;;;4.95;3.47;;;;;;;22.15;58.49;101138.66;4977604;28;20037;-77
2021/09/15 11:27:04;;;;;;;3.40;3.03;;;;;;;22.13;58.48;101135.16;4961531;28;20050;-77
2021/09/15 11:29:41;;;;;;;4.13;3.15;;;;;;;22.19;58.36;101151.78;4961609;28;20069;-77
2021/09/15 11:32:15;;;;;;;4.38;3.70;;;;;;;22.12;58.34;101130.78;4994841;28;20026;-77